Time;durP1;ratioP1;P1;durP2;ratioP2;P2;SDS_P1;SDS_P2;PMS_P1;PMS_P2;Temp;Humidity;BMP_temperature;BMP_pressure;BME280_temperature;BME280_humidity;BME280_pressure;Samples;Min_cycle;Max_cycle;Signal;HPM_P1;HPM_P2
2023/01/10 00:01:31;;;;;;;77.32;19.08;;;6.90;99.90;;;;;;6195047;23;20152;-85
2023/01/10 00:03:57;;;;;;;69.95;15.85;;;6.90;99.90;;;;;;6220875;23;20645;-86
2023/01/10 00:06:23;;;;;;;77.33;16.50;;;6.90;99.90;;;;;;6219934;23;20245;-85
2023/01/10 00:08:48;;;;;;;82.37;21.07;;;6.90;99.90;;;;;;6220610;23;20137;-86
2023/01/10 00:13:58;;;;;;;80.43;22.27;;;6.90;99.90;;;;;;6220519;23;20167;-85
2023/01/10 00:16:24;;;;;;;76.63;21.87;;;6.90;99.90;;;;;;6220304;23;20164;-85
2023/01/10 00:18:50;;;;;;;77.70;23.73;;;6.90;99.90;;;;;;6220502;23;20149;-85
2023/01/10 00:21:15;;;;;;;74.40;25.97;;;6.90;99.90;;;;;;6219750;23;20875;-87
2023/01/10 00:23:43;;;;;;;72.77;19.83;;;6.90;99.90;;;;;;6220792;23;20188;-86
2023/01/10 00:26:09;;;;;;;76.80;23.00;;;6.90;99.90;;;;;;6220390;23;20383;-87
2023/01/10 00:28:35;;;;;;;71.93;25.58;;;6.90;99.90;;;;;;6220925;23;20164;-86
2023/01/10 00:31:05;;;;;;;73.63;26.27;;;6.90;99.90;;;;;;6222925;23;20140;-88
2023/01/10 00:33:35;;;;;;;77.75;24.02;;;6.90;99.90;;;;;;6220256;23;20229;-87
2023/01/10 00:36:03;;;;;;;81.00;29.27;;;7.00;99.90;;;;;;6193950;23;20176;-86
2023/01/10 00:38:29;;;;;;;77.88;23.55;;;7.00;99.90;;;;;;6221152;23;20448;-86
2023/01/10 00:40:56;;;;;;;70.93;20.88;;;7.00;99.90;;;;;;6220820;23;20145;-86
2023/01/10 00:46:07;;;;;;;75.75;24.42;;;7.00;99.90;;;;;;6219808;23;20238;-86
2023/01/10 00:48:33;;;;;;;78.05;23.30;;;7.00;99.90;;;;;;6219288;23;20215;-86
2023/01/10 00:50:58;;;;;;;75.97;23.40;;;7.00;99.90;;;;;;6220736;23;20137;-86
2023/01/10 00:53:24;;;;;;;71.43;18.93;;;7.00;99.90;;;;;;6220623;23;20220;-86
2023/01/10 00:55:50;;;;;;;74.53;18.10;;;7.00;99.90;;;;;;6221051;23;20498;-85
2023/01/10 00:58:16;;;;;;;81.50;19.33;;;7.10;99.90;;;;;;6221037;23;20149;-86
2023/01/10 01:00:45;;;;;;;74.07;17.50;;;7.10;99.90;;;;;;6222206;23;20145;-86
2023/01/10 01:03:12;;;;;;;74.22;18.65;;;7.00;99.90;;;;;;6221941;23;20160;-86
2023/01/10 01:05:45;;;;;;;83.85;17.50;;;7.10;99.90;;;;;;6223116;23;20165;-86
2023/01/10 01:08:13;;;;;;;72.13;14.10;;;7.10;99.90;;;;;;6221929;23;20135;-87
2023/01/10 01:10:39;;;;;;;74.13;21.13;;;7.00;99.90;;;;;;6194434;23;20151;-87
2023/01/10 01:13:20;;;;;;;73.90;21.73;;;7.10;99.90;;;;;;6220464;23;20140;-85
2023/01/10 01:15:46;;;;;;;71.78;19.40;;;7.00;99.90;;;;;;6195101;23;20499;-85
2023/01/10 01:18:14;;;;;;;74.47;17.07;;;7.10;99.90;;;;;;6194689;23;20148;-85
2023/01/10 01:20:41;;;;;;;75.63;20.05;;;7.10;99.90;;;;;;6222251;23;20702;-85
2023/01/10 01:23:06;;;;;;;75.00;18.33;;;7.10;99.90;;;;;;6223074;23;20168;-86
2023/01/10 01:25:32;;;;;;;73.43;15.50;;;7.10;99.90;;;;;;6195770;23;20144;-86
2023/01/10 01:27:58;;;;;;;74.63;18.17;;;7.10;99.90;;;;;;6219086;23;20152;-85
2023/01/10 01:30:24;;;;;;;74.97;20.57;;;7.10;99.90;;;;;;6220736;23;20474;-86
2023/01/10 01:32:53;;;;;;;74.00;16.83;;;7.00;99.90;;;;;;6220705;23;20651;-86
2023/01/10 01:35:18;;;;;;;71.95;13.82;;;7.00;99.90;;;;;;6221073;23;20141;-86
2023/01/10 01:37:44;;;;;;;73.30;20.37;;;7.00;99.90;;;;;;6196280;23;20589;-86
2023/01/10 01:40:15;;;;;;;72.77;14.30;;;7.00;99.90;;;;;;6223186;23;20151;-86
2023/01/10 01:42:41;;;;;;;75.70;18.02;;;7.00;99.90;;;;;;6196176;23;20255;-86
2023/01/10 01:45:07;;;;;;;73.28;16.50;;;7.00;99.90;;;;;;6223441;23;20144;-86
2023/01/10 01:47:49;;;;;;;79.17;19.07;;;6.90;99.90;;;;;;6222647;23;20602;-86
2023/01/10 01:50:25;;;;;;;82.65;19.00;;;6.90;99.90;;;;;;6196369;23;20140;-85
2023/01/10 01:52:53;;;;;;;83.70;15.27;;;6.90;99.90;;;;;;6197367;23;20144;-86
2023/01/10 01:55:20;;;;;;;76.60;15.75;;;6.90;99.90;;;;;;6195970;23;20149;-85
2023/01/10 01:57:49;;;;;;;75.82;19.00;;;6.90;99.90;;;;;;6221233;23;20215;-86
2023/01/10 02:00:15;;;;;;;75.47;17.38;;;6.90;99.90;;;;;;6194311;23;20152;-86
2023/01/10 02:02:51;;;;;;;77.47;17.83;;;6.80;99.90;;;;;;6194750;23;20501;-85
2023/01/10 02:05:21;;;;;;;73.10;15.93;;;6.90;99.90;;;;;;6194007;23;20836;-86
2023/01/10 02:07:50;;;;;;;77.30;19.63;;;6.80;99.90;;;;;;6194185;23;20144;-86
2023/01/10 02:10:31;;;;;;;81.70;15.38;;;6.80;99.90;;;;;;6223423;23;20196;-86
2023/01/10 02:13:02;;;;;;;75.03;19.00;;;6.90;99.90;;;;;;6222263;23;20140;-86
2023/01/10 02:15:30;;;;;;;71.15;14.43;;;6.80;99.90;;;;;;6222208;23;20129;-86
2023/01/10 02:17:58;;;;;;;69.85;15.27;;;6.90;99.90;;;;;;6194985;23;20148;-85
2023/01/10 02:20:25;;;;;;;76.55;17.10;;;6.90;99.90;;;;;;6195207;23;20155;-85
2023/01/10 02:23:19;;;;;;;74.68;15.48;;;6.90;99.90;;;;;;6221044;23;20613;-86
2023/01/10 02:26:28;;;;;;;73.88;15.80;;;6.90;99.90;;;;;;6221505;23;20207;-86
2023/01/10 02:29:14;;;;;;;72.97;17.05;;;7.00;99.90;;;;;;6191018;23;20180;-86
2023/01/10 02:31:51;;;;;;;70.93;16.10;;;6.90;99.90;;;;;;6221148;23;20135;-85
2023/01/10 02:34:28;;;;;;;73.22;14.98;;;6.90;99.90;;;;;;6194357;23;20148;-86
2023/01/10 02:37:10;;;;;;;72.57;11.45;;;6.90;99.90;;;;;;6221469;23;20186;-87
2023/01/10 02:40:06;;;;;;;74.10;13.77;;;6.90;99.90;;;;;;6193785;23;20149;-86
2023/01/10 02:42:45;;;;;;;73.72;14.25;;;6.80;99.90;;;;;;6193969;23;20221;-85
2023/01/10 02:45:25;;;;;;;78.95;17.13;;;6.80;99.90;;;;;;6221847;23;20128;-86
2023/01/10 02:47:51;;;;;;;77.88;17.13;;;6.80;99.90;;;;;;6194939;23;20137;-85
2023/01/10 02:50:29;;;;;;;73.30;17.80;;;6.80;99.90;;;;;;6221399;23;20183;-85
2023/01/10 02:52:58;;;;;;;77.10;15.57;;;6.80;99.90;;;;;;6222094;23;20129;-85
2023/01/10 02:55:43;;;;;;;75.95;15.30;;;6.70;99.90;;;;;;6221728;23;20152;-86
2023/01/10 02:58:41;;;;;;;72.50;15.30;;;6.70;99.90;;;;;;6196383;23;20144;-86
2023/01/10 03:01:25;;;;;;;73.28;20.95;;;6.70;99.90;;;;;;6195025;23;20153;-85
2023/01/10 03:04:07;;;;;;;76.82;18.70;;;6.80;99.90;;;;;;6194415;23;20219;-86
2023/01/10 03:06:39;;;;;;;71.03;15.10;;;6.80;99.90;;;;;;6193803;23;20168;-85
2023/01/10 03:09:31;;;;;;;72.85;15.13;;;6.80;99.90;;;;;;6221501;23;20125;-86
2023/01/10 03:12:11;;;;;;;76.70;19.27;;;6.70;99.90;;;;;;6221819;23;20546;-85
2023/01/10 03:14:38;;;;;;;76.72;16.58;;;6.70;99.90;;;;;;6224801;23;20156;-86
2023/01/10 03:17:09;;;;;;;71.68;12.98;;;6.80;99.90;;;;;;6223159;23;20188;-86
2023/01/10 03:19:44;;;;;;;71.50;11.25;;;6.80;99.90;;;;;;6223170;23;20133;-85
2023/01/10 03:22:10;;;;;;;75.03;13.25;;;6.80;99.90;;;;;;6222445;23;20155;-85
2023/01/10 03:24:41;;;;;;;72.57;16.65;;;6.70;99.90;;;;;;6223107;23;20137;-86
2023/01/10 03:27:18;;;;;;;79.63;18.40;;;6.70;99.90;;;;;;6221974;23;20163;-86
2023/01/10 03:30:05;;;;;;;76.30;20.42;;;6.60;99.90;;;;;;6196658;23;20136;-86
2023/01/10 03:32:32;;;;;;;74.70;14.68;;;6.70;99.90;;;;;;6196969;23;20141;-86
2023/01/10 03:35:02;;;;;;;78.57;15.02;;;6.80;99.90;;;;;;6197083;23;20251;-87
2023/01/10 03:37:37;;;;;;;74.82;12.35;;;6.70;99.90;;;;;;6196340;23;20168;-85
2023/01/10 03:40:26;;;;;;;72.40;12.38;;;6.80;99.90;;;;;;6223851;23;20146;-86
2023/01/10 03:46:09;;;;;;;77.43;12.63;;;6.70;99.90;;;;;;6223347;23;20214;-86
2023/01/10 03:48:37;;;;;;;71.57;12.02;;;6.70;99.90;;;;;;6223641;23;20133;-85
2023/01/10 03:51:05;;;;;;;80.55;9.25;;;6.70;99.90;;;;;;6197083;23;20151;-85
2023/01/10 03:53:32;;;;;;;71.00;11.43;;;6.70;99.90;;;;;;6198620;23;20149;-86
2023/01/10 03:55:59;;;;;;;78.53;12.82;;;6.60;99.90;;;;;;6197066;23;20178;-86
2023/01/10 03:58:27;;;;;;;77.45;12.65;;;6.60;99.90;;;;;;6197352;23;20149;-86
2023/01/10 04:00:52;;;;;;;84.32;11.95;;;6.60;99.90;;;;;;6224817;23;20144;-85
2023/01/10 04:03:18;;;;;;;69.17;10.20;;;6.60;99.90;;;;;;6223464;23;20199;-86
2023/01/10 04:05:44;;;;;;;74.67;10.93;;;6.60;99.90;;;;;;6223349;23;20160;-87
2023/01/10 04:08:09;;;;;;;75.90;13.87;;;6.60;99.90;;;;;;6196921;23;20490;-86
2023/01/10 04:10:36;;;;;;;77.20;11.40;;;6.60;99.90;;;;;;6222349;23;20638;-86
2023/01/10 04:13:02;;;;;;;73.32;12.27;;;6.50;99.90;;;;;;6196421;23;20171;-86
2023/01/10 04:15:29;;;;;;;82.00;14.25;;;6.50;99.90;;;;;;6223539;23;20145;-85
2023/01/10 04:17:55;;;;;;;75.90;12.00;;;6.50;99.90;;;;;;6223737;23;20144;-85
2023/01/10 04:20:21;;;;;;;75.90;12.18;;;6.60;99.90;;;;;;6224833;23;20156;-85
2023/01/10 04:22:50;;;;;;;77.22;12.75;;;6.60;99.90;;;;;;6224218;23;20180;-85
2023/01/10 04:25:15;;;;;;;80.88;13.05;;;6.50;99.90;;;;;;6223692;23;20148;-85
2023/01/10 04:27:41;;;;;;;77.20;12.27;;;6.50;99.90;;;;;;6227730;23;20216;-85
2023/01/10 04:30:08;;;;;;;71.20;11.97;;;6.50;99.90;;;;;;6224803;23;20510;-86
2023/01/10 04:32:33;;;;;;;78.93;11.80;;;6.40;99.90;;;;;;6225159;23;20163;-85
2023/01/10 04:34:59;;;;;;;74.80;11.63;;;6.40;99.90;;;;;;6224416;23;20164;-86
2023/01/10 04:37:25;;;;;;;71.57;13.60;;;6.40;99.90;;;;;;6223199;23;20605;-85
2023/01/10 04:39:50;;;;;;;72.67;14.13;;;6.40;99.90;;;;;;6223543;23;20627;-86
2023/01/10 04:42:16;;;;;;;75.97;14.07;;;6.40;99.90;;;;;;6223518;23;20137;-85
2023/01/10 04:44:42;;;;;;;85.43;14.85;;;6.30;99.90;;;;;;6224108;23;20137;-86
2023/01/10 04:47:08;;;;;;;71.80;16.70;;;6.40;99.90;;;;;;6223248;23;20164;-85
2023/01/10 04:49:33;;;;;;;79.60;15.43;;;6.40;99.90;;;;;;6223065;23;20137;-85
2023/01/10 04:51:59;;;;;;;73.47;12.50;;;6.40;99.90;;;;;;6222763;23;20829;-87
2023/01/10 04:54:25;;;;;;;79.33;18.50;;;6.40;99.90;;;;;;6196138;23;20152;-86
2023/01/10 04:56:51;;;;;;;82.53;16.10;;;6.40;99.90;;;;;;6223282;23;20223;-86
2023/01/10 04:59:16;;;;;;;78.10;12.00;;;6.50;99.90;;;;;;6222352;23;20482;-86
2023/01/10 05:01:42;;;;;;;83.77;11.37;;;6.50;99.90;;;;;;6224092;23;20140;-86
2023/01/10 05:04:08;;;;;;;78.37;13.53;;;6.50;99.90;;;;;;6222346;23;20169;-85
2023/01/10 05:06:34;;;;;;;75.97;16.33;;;6.50;99.90;;;;;;6222749;23;20384;-86
2023/01/10 05:09:00;;;;;;;84.72;14.23;;;6.50;99.90;;;;;;6195627;23;20453;-86
2023/01/10 05:11:26;;;;;;;78.27;15.37;;;6.40;99.90;;;;;;6196263;23;20151;-86
2023/01/10 05:13:51;;;;;;;71.37;12.80;;;6.40;99.90;;;;;;6197156;23;20144;-86
2023/01/10 05:16:17;;;;;;;81.23;14.90;;;6.40;99.90;;;;;;6222773;23;20383;-86
2023/01/10 05:18:43;;;;;;;76.70;12.70;;;6.30;99.90;;;;;;6222822;23;20203;-85
2023/01/10 05:21:11;;;;;;;74.38;15.70;;;6.40;99.90;;;;;;6221961;23;20152;-85
2023/01/10 05:23:38;;;;;;;77.53;16.25;;;6.40;99.90;;;;;;6196364;23;20168;-87
2023/01/10 05:26:10;;;;;;;81.55;16.63;;;6.30;99.90;;;;;;6222345;23;20161;-86
2023/01/10 05:28:36;;;;;;;82.63;13.80;;;6.40;99.90;;;;;;6194281;23;20136;-86
2023/01/10 05:31:04;;;;;;;77.95;13.95;;;6.40;99.90;;;;;;6223354;23;20137;-85
2023/01/10 05:33:29;;;;;;;80.28;14.38;;;6.40;99.90;;;;;;6223193;23;20168;-87
2023/01/10 05:35:55;;;;;;;83.00;10.37;;;6.50;99.90;;;;;;6198484;23;20172;-85
2023/01/10 05:38:21;;;;;;;73.87;11.20;;;6.50;99.90;;;;;;6198809;23;20486;-86
2023/01/10 05:40:46;;;;;;;69.70;9.80;;;6.40;99.90;;;;;;6221756;23;20152;-86
2023/01/10 05:43:12;;;;;;;76.60;9.77;;;6.30;99.90;;;;;;6197407;23;20263;-86
2023/01/10 05:45:37;;;;;;;80.13;12.57;;;6.30;99.90;;;;;;6223587;23;20163;-85
2023/01/10 05:48:03;;;;;;;73.03;12.40;;;6.20;99.90;;;;;;6223214;23;20140;-86
2023/01/10 05:50:29;;;;;;;83.07;12.63;;;6.20;99.90;;;;;;6223171;23;20144;-86
2023/01/10 05:52:56;;;;;;;77.80;13.00;;;6.20;99.90;;;;;;6224952;23;20219;-86
2023/01/10 05:55:22;;;;;;;72.63;11.00;;;6.10;99.90;;;;;;6224431;23;20164;-85
2023/01/10 05:57:48;;;;;;;81.43;11.03;;;6.10;99.90;;;;;;6224270;23;20145;-86
2023/01/10 06:00:14;;;;;;;73.63;13.13;;;6.00;99.90;;;;;;6225016;23;20144;-85
2023/01/10 06:02:40;;;;;;;76.00;15.50;;;5.90;99.90;;;;;;6197178;23;20192;-87
2023/01/10 06:05:06;;;;;;;76.53;13.20;;;5.80;99.90;;;;;;6224585;23;20144;-87
2023/01/10 06:07:31;;;;;;;83.60;14.87;;;5.90;99.90;;;;;;6221291;23;20498;-87
2023/01/10 06:09:57;;;;;;;84.00;16.23;;;5.90;99.90;;;;;;6197208;23;20375;-86
2023/01/10 06:12:23;;;;;;;75.70;14.10;;;5.90;99.90;;;;;;6223905;23;20141;-86
2023/01/10 06:14:48;;;;;;;75.63;14.03;;;6.00;99.90;;;;;;6222344;23;20180;-85
2023/01/10 06:17:14;;;;;;;83.13;17.20;;;6.00;99.90;;;;;;6222007;23;20247;-86
2023/01/10 06:19:40;;;;;;;80.37;18.10;;;5.90;99.90;;;;;;6223760;23;20211;-87
2023/01/10 06:22:05;;;;;;;73.77;19.37;;;5.90;99.90;;;;;;6225582;23;20159;-85
2023/01/10 06:24:31;;;;;;;80.00;21.50;;;5.90;99.90;;;;;;6223770;23;20136;-86
2023/01/10 06:26:57;;;;;;;78.10;19.23;;;6.00;99.90;;;;;;6197460;23;20164;-86
2023/01/10 06:29:22;;;;;;;83.03;21.50;;;6.00;99.90;;;;;;6223653;23;20530;-86
2023/01/10 06:31:48;;;;;;;79.60;25.03;;;6.00;99.90;;;;;;6224224;23;20148;-86
2023/01/10 06:34:14;;;;;;;80.93;20.17;;;5.90;99.90;;;;;;6224667;23;20172;-86
2023/01/10 06:36:39;;;;;;;83.60;18.50;;;6.00;99.90;;;;;;6223820;23;20168;-86
2023/01/10 06:39:05;;;;;;;88.33;15.50;;;6.00;99.90;;;;;;6225806;23;20575;-87
2023/01/10 06:41:30;;;;;;;80.07;19.57;;;6.00;99.90;;;;;;6199303;23;20194;-86
2023/01/10 06:43:56;;;;;;;84.20;17.93;;;6.00;99.90;;;;;;6226812;23;20529;-85
2023/01/10 06:46:22;;;;;;;88.73;15.97;;;6.00;99.90;;;;;;6225551;23;20589;-86
2023/01/10 06:48:47;;;;;;;84.07;16.30;;;6.10;99.90;;;;;;6225810;23;20137;-86
2023/01/10 06:51:15;;;;;;;75.73;13.43;;;6.10;99.90;;;;;;6224168;23;20183;-86
2023/01/10 06:53:41;;;;;;;84.07;14.50;;;6.10;99.90;;;;;;6224030;23;20521;-86
2023/01/10 06:56:08;;;;;;;84.90;11.10;;;6.10;99.90;;;;;;6224810;23;20218;-86
2023/01/10 06:58:37;;;;;;;85.90;13.00;;;6.00;99.90;;;;;;6197990;23;20156;-85
2023/01/10 07:01:05;;;;;;;79.20;10.65;;;5.90;99.90;;;;;;6225202;23;20157;-85
2023/01/10 07:03:31;;;;;;;83.85;9.43;;;6.00;99.90;;;;;;6197976;23;20176;-86
2023/01/10 07:06:00;;;;;;;77.60;12.13;;;5.90;99.90;;;;;;6197963;23;20613;-85
2023/01/10 07:08:25;;;;;;;79.07;9.77;;;6.00;99.90;;;;;;6226336;23;20144;-86
2023/01/10 07:10:51;;;;;;;85.50;12.70;;;6.00;99.90;;;;;;6226315;23;20219;-85
2023/01/10 07:13:17;;;;;;;83.63;12.60;;;5.90;99.90;;;;;;6228363;23;20152;-86
2023/01/10 07:15:42;;;;;;;75.27;11.90;;;5.90;99.90;;;;;;6228105;23;20168;-86
2023/01/10 07:18:08;;;;;;;75.63;12.47;;;5.90;99.90;;;;;;6227754;23;20141;-86
2023/01/10 07:20:34;;;;;;;76.70;12.77;;;5.90;99.90;;;;;;6227245;23;20153;-86
2023/01/10 07:22:59;;;;;;;82.03;12.37;;;5.80;99.90;;;;;;6225853;23;20194;-86
2023/01/10 07:25:26;;;;;;;83.07;14.17;;;5.70;99.90;;;;;;6225243;23;20137;-86
2023/01/10 07:27:55;;;;;;;75.25;13.88;;;5.80;99.90;;;;;;6225309;23;20137;-86
2023/01/10 07:30:22;;;;;;;78.32;14.27;;;5.70;99.90;;;;;;6200970;23;20145;-86
2023/01/10 07:32:57;;;;;;;84.07;16.75;;;5.80;99.90;;;;;;6201393;23;20491;-85
2023/01/10 07:35:24;;;;;;;80.25;15.98;;;5.80;99.90;;;;;;6201024;23;20155;-86
2023/01/10 07:37:50;;;;;;;86.07;17.15;;;5.70;99.90;;;;;;6200908;23;20165;-86
2023/01/10 07:40:16;;;;;;;81.77;14.83;;;5.70;99.90;;;;;;6228146;23;20147;-86
2023/01/10 07:42:41;;;;;;;77.90;12.95;;;5.70;99.90;;;;;;6227613;23;20168;-86
2023/01/10 07:45:07;;;;;;;77.97;15.53;;;5.70;99.90;;;;;;6225688;23;20195;-86
2023/01/10 07:47:33;;;;;;;82.90;17.27;;;5.70;99.90;;;;;;6226373;23;20157;-86
2023/01/10 07:49:59;;;;;;;86.85;15.60;;;5.70;99.90;;;;;;6200222;23;20149;-85
2023/01/10 07:52:25;;;;;;;83.60;17.33;;;5.70;99.90;;;;;;6225118;23;20529;-86
2023/01/10 07:54:52;;;;;;;80.63;12.97;;;5.70;99.90;;;;;;6226428;23;20711;-86
2023/01/10 07:57:17;;;;;;;83.20;13.68;;;5.70;99.90;;;;;;6225938;23;20164;-86
2023/01/10 07:59:44;;;;;;;87.03;15.00;;;5.70;99.90;;;;;;6227366;23;20141;-86
2023/01/10 08:02:10;;;;;;;77.47;15.63;;;5.60;99.90;;;;;;6226115;23;20471;-86
2023/01/10 08:04:37;;;;;;;76.78;14.32;;;5.60;99.90;;;;;;6226811;23;20190;-85
2023/01/10 08:07:03;;;;;;;83.38;15.32;;;5.50;99.90;;;;;;6227227;23;20191;-86
2023/01/10 08:09:28;;;;;;;79.00;15.45;;;5.60;99.90;;;;;;6200606;23;20141;-86
2023/01/10 08:11:54;;;;;;;88.53;15.40;;;5.60;99.90;;;;;;6227398;23;20218;-86
2023/01/10 08:14:20;;;;;;;82.40;20.23;;;5.60;99.90;;;;;;6201147;23;20149;-85
2023/01/10 08:16:45;;;;;;;86.87;20.40;;;5.60;99.90;;;;;;6227806;23;20206;-86
2023/01/10 08:19:15;;;;;;;81.80;25.60;;;5.60;99.90;;;;;;6201301;23;20152;-86
2023/01/10 08:21:41;;;;;;;85.97;18.95;;;5.60;99.90;;;;;;6228226;23;20195;-86
2023/01/10 08:24:07;;;;;;;89.80;18.23;;;5.70;99.90;;;;;;6201176;23;20175;-85
2023/01/10 08:26:33;;;;;;;80.88;15.55;;;5.70;99.90;;;;;;6227894;23;20741;-85
2023/01/10 08:29:00;;;;;;;89.73;15.27;;;5.70;99.90;;;;;;6228239;23;20145;-86
2023/01/10 08:31:25;;;;;;;85.70;16.65;;;5.80;99.90;;;;;;6227813;23;20141;-86
2023/01/10 08:33:51;;;;;;;82.13;14.40;;;5.80;99.90;;;;;;6227545;23;20145;-86
2023/01/10 08:36:19;;;;;;;78.47;16.30;;;5.80;99.90;;;;;;6227813;23;20214;-86
2023/01/10 08:38:45;;;;;;;93.40;19.35;;;5.90;99.90;;;;;;6227168;23;20173;-85
2023/01/10 08:41:12;;;;;;;78.15;14.52;;;5.90;99.90;;;;;;6227443;23;20163;-86
2023/01/10 08:43:39;;;;;;;83.82;15.63;;;5.90;99.90;;;;;;6202721;23;20566;-86
2023/01/10 08:46:05;;;;;;;87.15;16.35;;;5.90;99.90;;;;;;6225971;23;20171;-86
2023/01/10 08:48:31;;;;;;;78.53;15.18;;;5.90;99.90;;;;;;6228251;23;20141;-85
2023/01/10 08:50:57;;;;;;;82.63;13.03;;;5.90;99.90;;;;;;6227591;23;20230;-86
2023/01/10 08:53:22;;;;;;;93.17;14.13;;;5.90;99.90;;;;;;6225894;23;20591;-85
2023/01/10 08:55:48;;;;;;;76.57;15.93;;;5.90;99.90;;;;;;6225202;23;20198;-85
2023/01/10 08:58:14;;;;;;;79.65;16.17;;;5.90;99.90;;;;;;6200765;23;20209;-86
2023/01/10 09:00:40;;;;;;;78.93;16.80;;;5.90;99.90;;;;;;6227677;23;20145;-86
2023/01/10 09:03:06;;;;;;;93.93;18.13;;;6.00;99.90;;;;;;6227144;23;20472;-86
2023/01/10 09:05:32;;;;;;;94.38;16.73;;;6.00;99.90;;;;;;6201197;23;20208;-86
2023/01/10 09:08:00;;;;;;;81.50;15.97;;;6.00;99.90;;;;;;6226288;23;20144;-86
2023/01/10 09:10:26;;;;;;;90.47;16.00;;;6.00;99.90;;;;;;6226393;23;20140;-86
2023/01/10 09:12:55;;;;;;;83.57;14.43;;;6.00;99.90;;;;;;6229189;23;20160;-86
2023/01/10 09:15:22;;;;;;;83.22;17.55;;;6.00;99.90;;;;;;6227193;23;20153;-87
2023/01/10 09:17:51;;;;;;;88.80;15.50;;;6.00;99.90;;;;;;6228395;23;20151;-87
2023/01/10 09:20:16;;;;;;;76.38;14.23;;;6.10;99.90;;;;;;6226764;23;20219;-86
2023/01/10 09:22:42;;;;;;;83.57;14.23;;;6.10;99.90;;;;;;6201278;23;20180;-86
2023/01/10 09:25:08;;;;;;;80.17;14.97;;;6.20;99.90;;;;;;6228048;23;20156;-86
2023/01/10 09:27:34;;;;;;;81.50;16.10;;;6.30;99.90;;;;;;6226533;23;20161;-85
2023/01/10 09:29:59;;;;;;;81.53;13.97;;;6.30;99.90;;;;;;6226649;23;20781;-86
2023/01/10 09:32:25;;;;;;;79.03;13.13;;;6.40;99.90;;;;;;6199620;23;20200;-86
2023/01/10 09:34:50;;;;;;;83.43;18.30;;;6.40;99.90;;;;;;6224724;23;20215;-86
2023/01/10 09:37:16;;;;;;;78.37;16.90;;;6.40;99.90;;;;;;6225983;23;20163;-86
2023/01/10 09:39:42;;;;;;;80.00;15.57;;;6.50;99.90;;;;;;6225417;23;20140;-86
2023/01/10 09:42:27;;;;;;;86.33;13.13;;;6.50;99.90;;;;;;6226601;23;20136;-87
2023/01/10 09:45:24;;;;;;;80.50;12.80;;;6.60;99.90;;;;;;6198351;23;20148;-87
2023/01/10 09:47:56;;;;;;;78.32;10.88;;;6.70;99.90;;;;;;6164425;23;20179;-86
2023/01/10 09:50:34;;;;;;;78.40;9.70;;;6.70;99.90;;;;;;6199958;23;20163;-86
2023/01/10 09:53:17;;;;;;;81.50;9.23;;;6.90;99.90;;;;;;6199542;23;20149;-86
2023/01/10 09:55:47;;;;;;;72.68;7.32;;;7.00;99.90;;;;;;6227493;23;20160;-87
2023/01/10 09:58:16;;;;;;;78.60;8.95;;;7.00;99.90;;;;;;6228699;23;20147;-86
2023/01/10 10:00:53;;;;;;;77.03;9.20;;;7.00;99.90;;;;;;6200820;23;20202;-86
2023/01/10 10:03:35;;;;;;;81.25;9.65;;;7.00;99.90;;;;;;6199752;23;20175;-86
2023/01/10 10:06:02;;;;;;;74.95;7.95;;;7.10;99.90;;;;;;6228064;23;20160;-86
2023/01/10 10:08:29;;;;;;;70.70;7.63;;;7.20;99.90;;;;;;6227532;23;20140;-86
2023/01/10 10:11:00;;;;;;;70.03;7.72;;;7.20;99.90;;;;;;6227645;23;20136;-86
2023/01/10 10:14:05;;;;;;;81.97;9.88;;;7.20;99.90;;;;;;6226654;23;20141;-86
2023/01/10 10:16:56;;;;;;;86.20;10.10;;;7.30;99.90;;;;;;6228935;23;20160;-86
2023/01/10 10:19:46;;;;;;;78.85;9.70;;;7.40;99.90;;;;;;6227830;23;20156;-85
2023/01/10 10:22:19;;;;;;;84.40;8.05;;;7.40;99.90;;;;;;6226956;23;20160;-86
2023/01/10 10:25:15;;;;;;;79.28;8.18;;;7.50;99.90;;;;;;6228321;23;20187;-86
2023/01/10 10:28:00;;;;;;;80.40;8.35;;;7.60;99.90;;;;;;6228033;23;20163;-86
2023/01/10 10:30:28;;;;;;;80.22;8.88;;;7.70;99.90;;;;;;6201580;23;20144;-86
2023/01/10 10:33:11;;;;;;;76.60;7.82;;;7.70;99.90;;;;;;6228004;23;20151;-85
2023/01/10 10:35:44;;;;;;;87.03;7.93;;;7.80;99.90;;;;;;6224205;23;20498;-85
2023/01/10 10:38:17;;;;;;;73.97;6.50;;;8.00;99.90;;;;;;6196106;23;20153;-85
2023/01/10 10:40:46;;;;;;;79.05;8.18;;;8.00;99.90;;;;;;6224261;23;20151;-84
2023/01/10 10:43:20;;;;;;;79.55;7.20;;;8.10;99.90;;;;;;6223881;23;20493;-85
2023/01/10 10:46:03;;;;;;;86.88;7.93;;;8.20;99.90;;;;;;6227059;23;20172;-86
2023/01/10 10:48:35;;;;;;;78.25;7.28;;;8.40;99.90;;;;;;6228584;23;20156;-86
2023/01/10 10:51:08;;;;;;;85.88;9.63;;;8.30;98.30;;;;;;6227180;23;20121;-87
2023/01/10 10:53:34;;;;;;;77.82;6.32;;;8.20;94.20;;;;;;6203163;23;20168;-86
2023/01/10 10:56:06;;;;;;;80.23;6.97;;;8.40;99.90;;;;;;6228835;23;20161;-86
2023/01/10 10:58:32;;;;;;;75.57;7.13;;;8.40;94.50;;;;;;6228366;23;20352;-86
2023/01/10 11:01:01;;;;;;;78.97;6.75;;;8.50;98.10;;;;;;6227877;23;20144;-86
2023/01/10 11:03:34;;;;;;;80.90;6.88;;;8.50;95.10;;;;;;6227783;23;20210;-86
2023/01/10 11:06:01;;;;;;;74.93;5.75;;;8.60;91.00;;;;;;6200880;23;20509;-86
2023/01/10 11:08:29;;;;;;;82.38;5.53;;;8.70;93.20;;;;;;6228773;23;20143;-86
2023/01/10 11:10:57;;;;;;;77.70;7.47;;;8.70;90.70;;;;;;6228685;23;20187;-86
2023/01/10 11:13:31;;;;;;;77.32;6.55;;;8.70;88.20;;;;;;6201587;23;20171;-86
2023/01/10 11:15:58;;;;;;;80.20;7.95;;;8.60;78.30;;;;;;6201217;23;20168;-86
2023/01/10 11:18:28;;;;;;;78.75;7.50;;;8.60;76.10;;;;;;6200416;23;20553;-86
2023/01/10 11:21:03;;;;;;;84.07;8.88;;;8.70;77.00;;;;;;6227283;23;20159;-86
2023/01/10 11:23:48;;;;;;;76.25;7.10;;;8.70;73.80;;;;;;6227076;23;20164;-86
2023/01/10 11:26:35;;;;;;;72.00;6.75;;;8.60;73.20;;;;;;6227785;23;20160;-86
2023/01/10 11:29:20;;;;;;;76.50;8.55;;;8.50;67.80;;;;;;6229151;23;20121;-86
2023/01/10 11:31:47;;;;;;;79.30;7.10;;;8.70;77.70;;;;;;6224978;23;20143;-86
2023/01/10 11:34:35;;;;;;;80.53;6.93;;;8.50;64.60;;;;;;6229472;23;20271;-86
2023/01/10 11:37:17;;;;;;;74.85;7.90;;;8.50;65.40;;;;;;6230129;23;20161;-86
2023/01/10 11:39:42;;;;;;;70.03;5.82;;;8.60;71.90;;;;;;6229461;23;20144;-86
2023/01/10 11:42:38;;;;;;;73.50;6.70;;;8.60;62.40;;;;;;6229891;23;20160;-86
2023/01/10 11:45:18;;;;;;;73.32;5.57;;;8.50;69.30;;;;;;6204791;23;20152;-86
2023/01/10 11:47:49;;;;;;;81.63;7.20;;;8.50;71.80;;;;;;6230726;23;20446;-86
2023/01/10 11:50:28;;;;;;;70.75;7.85;;;8.50;68.10;;;;;;6228965;23;20129;-85
2023/01/10 11:52:55;;;;;;;76.75;7.45;;;8.60;62.60;;;;;;6203315;23;20137;-86
2023/01/10 11:55:30;;;;;;;74.10;7.70;;;8.60;66.00;;;;;;6230034;23;20167;-86
2023/01/10 11:57:58;;;;;;;72.72;6.75;;;8.70;62.80;;;;;;6204024;23;20152;-86
2023/01/10 12:00:32;;;;;;;75.88;8.38;;;8.70;64.40;;;;;;6230361;23;20160;-86
2023/01/10 12:03:00;;;;;;;74.85;6.80;;;8.70;60.80;;;;;;6203509;23;20156;-86
2023/01/10 12:05:26;;;;;;;72.20;7.30;;;8.70;58.50;;;;;;6229987;23;20467;-86
2023/01/10 12:08:25;;;;;;;75.70;6.70;;;8.70;60.90;;;;;;6230266;23;20144;-85
2023/01/10 12:11:18;;;;;;;71.72;6.90;;;8.80;70.30;;;;;;6203366;23;20202;-86
2023/01/10 12:13:56;;;;;;;73.88;5.60;;;8.80;53.60;;;;;;6210368;23;20149;-86
2023/01/10 12:16:28;;;;;;;76.28;5.85;;;8.90;59.20;;;;;;6230067;23;20218;-86
2023/01/10 12:19:03;;;;;;;71.95;6.20;;;8.90;47.90;;;;;;6231575;23;20201;-86
2023/01/10 12:21:40;;;;;;;67.80;5.38;;;8.90;55.90;;;;;;6205368;23;20168;-86
2023/01/10 12:24:17;;;;;;;83.03;7.72;;;8.90;48.30;;;;;;6230673;23;20183;-86
2023/01/10 12:26:46;;;;;;;75.72;7.35;;;9.00;55.20;;;;;;6203066;23;20164;-86
2023/01/10 12:29:16;;;;;;;72.18;6.00;;;9.00;49.30;;;;;;6202727;23;20144;-86
2023/01/10 12:31:42;;;;;;;73.75;6.72;;;8.80;49.20;;;;;;6229614;23;20129;-86
2023/01/10 12:34:19;;;;;;;85.60;8.53;;;8.90;52.40;;;;;;6229491;23;20172;-86
2023/01/10 12:37:23;;;;;;;72.55;6.15;;;8.90;49.60;;;;;;6229814;23;20164;-86
2023/01/10 12:39:55;;;;;;;72.45;6.38;;;8.80;45.80;;;;;;6144380;23;20162;-86
2023/01/10 12:45:27;;;;;;;81.40;7.32;;;8.80;54.70;;;;;;6230019;23;20135;-86
2023/01/10 12:48:05;;;;;;;78.95;7.43;;;8.70;51.80;;;;;;6203190;23;20140;-85
2023/01/10 12:50:40;;;;;;;74.57;7.85;;;8.70;53.80;;;;;;6202262;23;20159;-86
2023/01/10 12:53:16;;;;;;;72.82;6.28;;;8.60;53.50;;;;;;6230832;23;20453;-86
2023/01/10 12:55:44;;;;;;;72.18;6.15;;;8.60;54.80;;;;;;6229557;23;20210;-86
2023/01/10 12:58:22;;;;;;;71.70;6.38;;;8.60;49.40;;;;;;6230140;23;20609;-86
2023/01/10 13:00:55;;;;;;;72.15;5.97;;;8.60;48.50;;;;;;6231101;23;20159;-86
2023/01/10 13:03:26;;;;;;;69.57;5.50;;;8.70;53.90;;;;;;6230358;23;20494;-86
2023/01/10 13:05:53;;;;;;;74.93;5.85;;;8.70;53.20;;;;;;6229904;23;20156;-85
2023/01/10 13:08:24;;;;;;;71.97;5.63;;;8.80;49.50;;;;;;6197026;23;20175;-85